createdAt,value
2019-05-21T00:02:13.977Z,24.70
2019-05-21T00:05:17.562Z,24.85
2019-05-21T00:08:22.760Z,23.70
2019-05-21T00:11:27.973Z,22.80
2019-05-21T00:14:33.433Z,23.47
2019-05-21T00:17:37.005Z,25.52
2019-05-21T00:20:46.315Z,25.52
2019-05-21T00:23:48.926Z,23.92
2019-05-21T00:26:52.546Z,24.05
2019-05-21T00:30:34.271Z,23.57
2019-05-21T00:34:14.022Z,25.92
2019-05-21T00:37:57.014Z,26.15
2019-05-21T00:44:23.209Z,26.62
2019-05-21T00:47:26.753Z,24.05
2019-05-21T00:50:30.345Z,25.45
2019-05-21T00:53:33.952Z,26.12
2019-05-21T00:56:37.556Z,27.48
2019-05-21T00:59:41.163Z,30.12
2019-05-21T01:02:44.776Z,27.50
2019-05-21T01:05:49.883Z,24.87
2019-05-21T01:08:53.432Z,26.52
2019-05-21T01:11:57.038Z,27.65
2019-05-21T01:15:00.625Z,27.13
2019-05-21T01:18:04.165Z,28.23
2019-05-21T01:21:07.856Z,29.82
2019-05-21T01:24:11.623Z,29.55
2019-05-21T01:27:15.323Z,31.37
2019-05-21T01:30:19.164Z,32.13
2019-05-21T01:33:22.856Z,36.60
2019-05-21T01:36:29.216Z,33.25
2019-05-21T01:39:32.806Z,35.80
2019-05-21T01:42:36.329Z,38.25
2019-05-21T01:45:40.098Z,40.35
2019-05-21T01:48:45.176Z,38.75
2019-05-21T01:51:48.741Z,39.42
2019-05-21T01:54:52.304Z,36.42
2019-05-21T01:57:57.476Z,42.25
2019-05-21T02:01:01.032Z,42.73
2019-05-21T02:04:04.924Z,35.75
2019-05-21T02:07:10.102Z,38.70
2019-05-21T02:10:14.092Z,44.90
2019-05-21T02:13:19.379Z,43.85
2019-05-21T02:16:22.984Z,43.58
2019-05-21T02:19:26.638Z,41.45
2019-05-21T02:22:30.290Z,39.20
2019-05-21T02:25:35.361Z,42.23
2019-05-21T02:28:39.059Z,42.10
2019-05-21T02:31:42.642Z,43.52
2019-05-21T02:34:46.265Z,42.98
2019-05-21T02:37:49.827Z,40.12
2019-05-21T02:40:55.889Z,39.55
2019-05-21T02:43:59.479Z,41.68
2019-05-21T02:47:04.719Z,46.33
2019-05-21T02:50:08.807Z,42.88
2019-05-21T02:53:12.371Z,43.25
2019-05-21T02:56:15.939Z,39.95
2019-05-21T02:59:19.581Z,36.63
2019-05-21T03:02:38.251Z,42.58
2019-05-21T03:05:41.839Z,39.50
2019-05-21T03:08:45.410Z,44.70
2019-05-21T03:11:49.022Z,40.08
2019-05-21T03:14:52.610Z,40.12
2019-05-21T03:17:56.176Z,35.78
2019-05-21T03:20:59.794Z,36.60
2019-05-21T03:24:03.578Z,36.65
2019-05-21T03:27:07.185Z,39.25
2019-05-21T03:30:12.752Z,37.42
2019-05-21T03:33:17.949Z,35.52
2019-05-21T03:36:33.498Z,34.92
2019-05-21T03:39:32.704Z,35.13
2019-05-21T03:42:36.214Z,33.55
2019-05-21T03:45:40.367Z,32.05
2019-05-21T03:48:46.195Z,32.08
2019-05-21T03:51:49.750Z,32.75
2019-05-21T03:54:54.923Z,27.25
2019-05-21T03:57:58.470Z,29.55
2019-05-21T04:01:02.135Z,31.25
2019-05-21T04:04:05.785Z,34.55
2019-05-21T04:07:09.417Z,33.58
2019-05-21T04:10:17.203Z,29.35
2019-05-21T04:13:20.754Z,33.45
2019-05-21T04:16:28.656Z,32.75
2019-05-21T04:19:33.909Z,34.60
2019-05-21T04:22:42.063Z,30.70
2019-05-21T04:25:45.691Z,32.10
2019-05-21T04:28:49.272Z,34.25
2019-05-21T04:31:52.843Z,31.15
2019-05-21T04:34:58.153Z,28.83
2019-05-21T04:38:04.518Z,29.45
2019-05-21T04:41:09.111Z,28.98
2019-05-21T04:44:12.677Z,30.65
2019-05-21T04:47:16.246Z,30.55
2019-05-21T04:50:19.787Z,29.50
2019-05-21T04:53:23.383Z,30.08
2019-05-21T04:56:27.051Z,22.95
2019-05-21T04:59:30.751Z,26.42
2019-05-21T05:02:34.405Z,23.60
2019-05-21T05:05:38.160Z,26.45
2019-05-21T05:08:41.847Z,26.25
2019-05-21T05:11:45.501Z,27.05
2019-05-21T05:14:49.157Z,26.42
2019-05-21T05:17:52.821Z,24.60
2019-05-21T05:20:56.458Z,20.30
2019-05-21T05:24:00.115Z,21.70
2019-05-21T05:27:03.766Z,22.00
2019-05-21T05:30:08.164Z,20.52
2019-05-21T05:33:11.789Z,20.88
2019-05-21T05:36:15.631Z,20.88
2019-05-21T05:39:19.239Z,20.45
2019-05-21T05:42:23.023Z,18.55
2019-05-21T05:45:26.775Z,18.98
2019-05-21T05:48:32.299Z,19.10
2019-05-21T05:51:35.965Z,19.25
2019-05-21T05:54:39.670Z,23.05
2019-05-21T05:57:43.422Z,21.52
2019-05-21T06:00:47.087Z,17.32
2019-05-21T06:03:50.929Z,18.12
2019-05-21T06:06:54.546Z,17.40
2019-05-21T06:09:58.214Z,16.85
2019-05-21T06:13:01.935Z,19.25
2019-05-21T06:16:05.752Z,17.05
2019-05-21T06:19:09.369Z,18.52
2019-05-21T06:22:13.224Z,15.50
2019-05-21T06:25:18.590Z,17.48
2019-05-21T06:28:22.336Z,17.37
2019-05-21T06:31:25.969Z,16.35
2019-05-21T06:34:29.614Z,17.17
2019-05-21T06:37:33.242Z,19.60
2019-05-21T06:40:38.553Z,19.48
2019-05-21T06:43:42.284Z,15.85
2019-05-21T06:46:46.013Z,16.05
2019-05-21T06:49:49.630Z,16.17
2019-05-21T06:52:53.310Z,15.48
2019-05-21T06:55:56.925Z,15.20
2019-05-21T06:59:00.617Z,15.28
2019-05-21T07:02:04.515Z,15.68
2019-05-21T07:05:08.514Z,14.95
2019-05-21T07:08:12.159Z,16.60
2019-05-21T07:11:15.819Z,15.88
2019-05-21T07:14:19.490Z,18.90
2019-05-21T07:17:23.182Z,15.93
2019-05-21T07:20:26.999Z,13.93
2019-05-21T07:23:30.609Z,15.53
2019-05-21T07:26:34.405Z,15.05
2019-05-21T07:29:38.051Z,13.80
2019-05-21T07:32:41.708Z,17.27
2019-05-21T07:35:45.365Z,12.23
2019-05-21T07:38:54.051Z,15.05
2019-05-21T07:41:54.411Z,11.93
2019-05-21T07:44:58.017Z,10.70
2019-05-21T07:48:01.772Z,11.22
2019-05-21T07:51:05.414Z,12.80
2019-05-21T07:54:09.070Z,11.10
2019-05-21T07:57:12.691Z,11.10
2019-05-21T08:00:18.280Z,11.05
2019-05-21T08:03:21.960Z,11.65
2019-05-21T08:06:25.619Z,9.03
2019-05-21T08:09:29.271Z,9.25
2019-05-21T08:12:39.123Z,10.00
2019-05-21T08:15:38.451Z,11.08
2019-05-21T08:18:42.135Z,10.63
2019-05-21T08:21:45.858Z,13.18
2019-05-21T08:24:49.449Z,8.68
2019-05-21T08:27:53.207Z,10.90
2019-05-21T08:30:56.799Z,10.20
2019-05-21T08:34:00.476Z,10.78
2019-05-21T08:37:04.589Z,14.10
2019-05-21T08:40:09.098Z,12.58
2019-05-21T08:43:12.823Z,10.08
2019-05-21T08:46:16.463Z,9.00
2019-05-21T08:49:20.140Z,8.88
2019-05-21T08:52:23.817Z,8.53
2019-05-21T08:55:27.474Z,9.50
2019-05-21T08:58:31.079Z,7.90
2019-05-21T09:01:34.797Z,7.85
2019-05-21T09:04:46.148Z,12.80
2019-05-21T09:07:43.921Z,10.28
2019-05-21T09:10:47.552Z,10.90
2019-05-21T09:13:52.232Z,13.62
2019-05-21T09:16:55.872Z,12.63
2019-05-21T09:20:00.584Z,10.18
2019-05-21T09:23:04.173Z,10.25
2019-05-21T09:26:07.802Z,10.85
2019-05-21T09:29:11.594Z,11.15
2019-05-21T09:32:15.240Z,7.30
2019-05-21T09:35:19.031Z,8.10
2019-05-21T09:38:22.720Z,6.80
2019-05-21T09:41:26.455Z,5.05
2019-05-21T09:44:30.174Z,6.83
2019-05-21T09:47:33.819Z,4.80
2019-05-21T09:50:37.493Z,6.17
2019-05-21T09:53:41.394Z,4.78
2019-05-21T09:56:45.006Z,5.28
2019-05-21T09:59:53.044Z,5.42
2019-05-21T10:02:56.683Z,7.87
2019-05-21T10:06:00.703Z,6.65
2019-05-21T10:09:08.264Z,3.80
2019-05-21T10:12:11.974Z,3.67
2019-05-21T10:15:15.589Z,5.15
2019-05-21T10:18:19.257Z,4.67
2019-05-21T10:21:22.908Z,4.95
2019-05-21T10:24:26.553Z,5.62
2019-05-21T10:27:30.194Z,5.05
2019-05-21T10:30:34.054Z,6.97
2019-05-21T10:33:37.679Z,7.22
2019-05-21T10:36:41.397Z,6.95
2019-05-21T10:39:45.013Z,9.08
2019-05-21T10:42:48.692Z,84.95
2019-05-21T10:45:52.377Z,7.37
2019-05-21T10:48:56.024Z,5.08
2019-05-21T10:51:59.714Z,8.50
2019-05-21T10:55:04.322Z,6.17
2019-05-21T10:58:07.962Z,4.65
2019-05-21T11:01:21.980Z,4.12
2019-05-21T11:04:32.962Z,10.48
2019-05-21T11:07:36.613Z,4.97
2019-05-21T11:10:41.750Z,5.42
2019-05-21T11:13:45.540Z,14.53
2019-05-21T11:16:49.253Z,5.10
2019-05-21T11:19:52.893Z,3.05
2019-05-21T11:22:58.407Z,5.22
2019-05-21T11:26:02.035Z,4.62
2019-05-21T11:29:05.854Z,3.80
2019-05-21T11:32:09.526Z,4.10
2019-05-21T11:35:13.577Z,3.25
2019-05-21T11:38:17.234Z,6.80
2019-05-21T11:41:20.918Z,2.83
2019-05-21T11:44:24.563Z,3.33
2019-05-21T11:47:28.242Z,3.58
2019-05-21T11:50:32.038Z,3.85
2019-05-21T11:53:35.645Z,4.03
2019-05-21T11:56:39.367Z,4.33
2019-05-21T11:59:42.996Z,3.77
2019-05-21T12:02:46.869Z,2.70
2019-05-21T12:05:50.935Z,4.05
2019-05-21T12:08:57.062Z,4.60
2019-05-21T12:11:59.965Z,9.43
2019-05-21T12:15:08.649Z,6.00
2019-05-21T12:18:12.284Z,6.10
2019-05-21T12:21:15.972Z,2.40
2019-05-21T12:24:19.638Z,2.50
2019-05-21T12:27:23.268Z,3.33
2019-05-21T12:30:26.869Z,3.98
2019-05-21T12:33:34.699Z,3.75
2019-05-21T12:36:36.059Z,3.98
2019-05-21T12:39:39.700Z,3.72
2019-05-21T12:42:43.314Z,6.55
2019-05-21T12:45:47.023Z,1.50
2019-05-21T12:48:50.777Z,2.65
2019-05-21T12:51:54.437Z,1.57
2019-05-21T12:54:58.101Z,2.33
2019-05-21T12:58:01.752Z,3.20
2019-05-21T13:01:05.640Z,1.77
2019-05-21T13:04:09.286Z,4.50
2019-05-21T13:07:12.917Z,4.55
2019-05-21T13:10:16.847Z,7.20
2019-05-21T13:13:20.454Z,7.17
2019-05-21T13:16:24.128Z,5.20
2019-05-21T13:19:27.730Z,4.70
2019-05-21T13:22:31.696Z,9.15
2019-05-21T13:25:36.276Z,4.58
2019-05-21T13:28:39.911Z,4.70
2019-05-21T13:31:43.556Z,4.37
2019-05-21T13:34:47.288Z,5.58
2019-05-21T13:37:50.965Z,6.87
2019-05-21T13:40:54.885Z,3.25
2019-05-21T13:43:58.493Z,6.40
2019-05-21T13:47:02.191Z,5.45
2019-05-21T13:50:07.867Z,6.05
2019-05-21T13:53:11.581Z,3.92
2019-05-21T13:56:15.295Z,6.05
2019-05-21T13:59:19.453Z,5.45
2019-05-21T14:02:24.674Z,3.75
2019-05-21T14:05:28.773Z,5.92
2019-05-21T14:08:32.384Z,4.15
2019-05-21T14:11:36.279Z,6.42
2019-05-21T14:14:40.037Z,11.97
2019-05-21T14:17:43.764Z,7.75
2019-05-21T14:20:49.272Z,4.97
2019-05-21T14:23:52.955Z,4.83
2019-05-21T14:26:56.560Z,3.58
2019-05-21T14:30:00.954Z,5.08
2019-05-21T14:33:04.641Z,8.45
2019-05-21T14:36:08.492Z,7.62
2019-05-21T14:39:13.734Z,5.00
2019-05-21T14:42:20.467Z,5.90
2019-05-21T14:45:28.282Z,4.55
2019-05-21T14:48:29.554Z,5.67
2019-05-21T14:51:33.201Z,6.87
2019-05-21T14:54:36.862Z,6.17
2019-05-21T14:57:40.492Z,4.22
2019-05-21T15:00:44.235Z,7.67
2019-05-21T15:03:47.919Z,7.33
2019-05-21T15:06:51.576Z,9.68
2019-05-21T15:09:55.177Z,5.83
2019-05-21T15:12:58.824Z,10.45
2019-05-21T15:16:02.491Z,6.78
2019-05-21T15:19:06.239Z,7.72
2019-05-21T15:22:09.991Z,12.80
2019-05-21T15:25:13.781Z,5.95
2019-05-21T15:28:17.511Z,7.97
2019-05-21T15:31:21.223Z,7.83
2019-05-21T15:34:24.908Z,10.75
2019-05-21T15:37:28.508Z,5.80
2019-05-21T15:40:32.307Z,7.87
2019-05-21T15:43:35.966Z,8.93
2019-05-21T15:46:48.984Z,6.15
2019-05-21T15:49:44.946Z,5.00
2019-05-21T15:52:48.607Z,7.35
2019-05-21T15:55:52.204Z,10.53
2019-05-21T15:58:55.924Z,8.15
2019-05-21T16:01:59.584Z,7.83
2019-05-21T16:05:03.682Z,7.75
2019-05-21T16:08:07.339Z,6.95
2019-05-21T16:11:27.386Z,8.95
2019-05-21T16:14:16.339Z,6.25
2019-05-21T16:17:19.972Z,8.68
2019-05-21T16:20:23.916Z,5.67
2019-05-21T16:23:27.526Z,12.13
2019-05-21T16:26:31.270Z,17.07
2019-05-21T16:29:34.896Z,16.00
2019-05-21T16:32:38.638Z,11.43
2019-05-21T16:35:42.303Z,15.43
2019-05-21T16:38:46.038Z,16.52
2019-05-21T16:41:49.657Z,13.38
2019-05-21T16:44:56.642Z,18.92
2019-05-21T16:48:00.281Z,15.25
2019-05-21T16:51:04.386Z,13.95
2019-05-21T16:54:08.023Z,16.27
2019-05-21T16:57:11.695Z,14.18
2019-05-21T17:00:17.239Z,16.42
2019-05-21T17:03:20.903Z,16.67
2019-05-21T17:06:24.771Z,17.50
2019-05-21T17:09:29.257Z,21.62
2019-05-21T17:12:32.951Z,19.00
2019-05-21T17:15:36.597Z,18.05
2019-05-21T17:18:40.297Z,18.90
2019-05-21T17:21:44.109Z,17.37
2019-05-21T17:24:47.790Z,18.70
2019-05-21T17:27:51.553Z,17.75
2019-05-21T17:30:55.160Z,16.40
2019-05-21T17:33:58.841Z,15.95
2019-05-21T17:37:02.557Z,13.30
2019-05-21T17:40:07.596Z,15.75
2019-05-21T17:43:11.225Z,16.37
2019-05-21T17:46:14.881Z,15.95
2019-05-21T17:49:20.236Z,14.28
2019-05-21T17:52:23.935Z,14.90
2019-05-21T17:55:27.899Z,12.98
2019-05-21T17:58:31.736Z,13.88
2019-05-21T18:01:35.442Z,13.80
2019-05-21T18:04:39.462Z,14.85
2019-05-21T18:07:43.255Z,15.10
2019-05-21T18:10:47.450Z,19.00
2019-05-21T18:13:51.379Z,19.35
2019-05-21T18:16:55.001Z,15.72
2019-05-21T18:19:59.754Z,19.12
2019-05-21T18:23:03.833Z,18.95
2019-05-21T18:26:08.030Z,17.40
2019-05-21T18:29:11.933Z,19.20
2019-05-21T18:32:15.688Z,17.75
2019-05-21T18:35:19.415Z,16.65
2019-05-21T18:38:23.297Z,18.48
2019-05-21T18:41:27.097Z,19.10
2019-05-21T18:44:30.754Z,23.35
2019-05-21T18:47:35.448Z,21.90
2019-05-21T18:50:39.068Z,20.97
2019-05-21T18:53:42.743Z,23.85
2019-05-21T18:56:46.547Z,22.95
2019-05-21T18:59:50.216Z,23.65
2019-05-21T19:02:53.914Z,27.37
2019-05-21T19:05:57.527Z,28.42
2019-05-21T19:09:01.282Z,31.05
2019-05-21T19:12:04.981Z,29.70
2019-05-21T19:15:09.555Z,26.68
2019-05-21T19:18:13.183Z,29.23
2019-05-21T19:21:16.875Z,21.90
2019-05-21T19:24:20.494Z,22.27
2019-05-21T19:27:25.443Z,26.90
2019-05-21T19:30:29.599Z,26.17
2019-05-21T19:33:33.287Z,25.32
2019-05-21T19:36:36.994Z,27.02
2019-05-21T19:39:40.750Z,22.80
2019-05-21T19:42:54.267Z,24.18
2019-05-21T19:45:49.842Z,20.30
2019-05-21T19:48:53.496Z,24.57
2019-05-21T19:51:57.140Z,29.00
2019-05-21T19:55:00.773Z,29.25
2019-05-21T19:58:04.804Z,28.38
2019-05-21T20:01:09.422Z,29.82
2019-05-21T20:04:14.016Z,33.33
2019-05-21T20:07:19.285Z,31.52
2019-05-21T20:10:23.506Z,29.75
2019-05-21T20:13:32.459Z,23.75
2019-05-21T20:16:33.085Z,24.45
2019-05-21T20:19:36.805Z,25.95
2019-05-21T20:22:42.369Z,29.37
2019-05-21T20:25:56.111Z,28.67
2019-05-21T20:28:51.428Z,29.63
2019-05-21T20:31:55.317Z,26.57
2019-05-21T20:34:59.047Z,27.98
2019-05-21T20:38:03.738Z,22.02
2019-05-21T20:41:07.513Z,23.10
2019-05-21T20:44:12.747Z,21.93
2019-05-21T20:47:18.145Z,20.88
2019-05-21T20:50:23.190Z,20.43
2019-05-21T20:53:27.025Z,18.65
2019-05-21T20:56:31.582Z,20.85
2019-05-21T20:59:35.430Z,18.67
2019-05-21T21:02:40.672Z,18.45
2019-05-21T21:05:44.917Z,19.57
2019-05-21T21:08:49.053Z,16.77
2019-05-21T21:11:52.688Z,20.20
2019-05-21T21:14:56.628Z,20.52
2019-05-21T21:18:00.835Z,17.80
2019-05-21T21:21:04.628Z,22.27
2019-05-21T21:24:08.751Z,19.60
2019-05-21T21:27:12.812Z,22.20
2019-05-21T21:30:16.505Z,21.42
2019-05-21T21:33:20.338Z,23.62
2019-05-21T21:36:24.570Z,25.12
2019-05-21T21:39:28.365Z,28.00
2019-05-21T21:42:32.397Z,27.95
2019-05-21T21:45:36.811Z,28.42
2019-05-21T21:48:40.704Z,30.88
2019-05-21T21:51:44.356Z,35.28
2019-05-21T21:54:48.151Z,29.48
2019-05-21T21:57:51.936Z,32.25
2019-05-21T22:01:02.768Z,35.10
2019-05-21T22:04:08.516Z,31.75
2019-05-21T22:07:15.601Z,34.67
2019-05-21T22:10:20.479Z,36.55
2019-05-21T22:13:24.886Z,39.55
2019-05-21T22:16:29.297Z,42.10
2019-05-21T22:19:37.645Z,37.70
2019-05-21T22:22:41.812Z,40.48
2019-05-21T22:25:45.694Z,39.10
2019-05-21T22:28:49.288Z,34.48
2019-05-21T22:31:53.014Z,44.00
2019-05-21T22:34:56.632Z,36.58
2019-05-21T22:38:00.413Z,37.42
2019-05-21T22:41:04.452Z,39.95
2019-05-21T22:44:08.104Z,36.75
2019-05-21T22:47:12.294Z,36.55
2019-05-21T22:50:17.081Z,34.80
2019-05-21T22:53:20.641Z,34.23
2019-05-21T22:56:24.195Z,35.20
2019-05-21T22:59:27.751Z,32.53
2019-05-21T23:02:33.433Z,27.05
2019-05-21T23:05:37.099Z,32.30
2019-05-21T23:08:40.666Z,31.50
2019-05-21T23:11:44.402Z,27.00
2019-05-21T23:14:48.698Z,31.23
2019-05-21T23:17:52.906Z,30.02
2019-05-21T23:20:57.150Z,37.17
2019-05-21T23:24:01.737Z,28.45
2019-05-21T23:27:08.775Z,30.62
2019-05-21T23:30:15.570Z,30.60
2019-05-21T23:33:20.215Z,28.05
2019-05-21T23:36:24.046Z,31.05
2019-05-21T23:39:28.202Z,31.48
2019-05-21T23:42:32.536Z,33.33
2019-05-21T23:45:36.340Z,30.00
2019-05-21T23:48:41.175Z,29.60
2019-05-21T23:51:45.529Z,31.62
2019-05-21T23:54:49.331Z,25.27
2019-05-21T23:57:52.900Z,26.35
